Time;durP1;ratioP1;P1;durP2;ratioP2;P2;SDS_P1;SDS_P2;PMS_P1;PMS_P2;Temp;Humidity;BMP_temperature;BMP_pressure;BME280_temperature;BME280_humidity;BME280_pressure;Samples;Min_cycle;Max_cycle;Signal;HPM_P1;HPM_P2
2023/05/17 00:01:44;;;;;;;10.50;6.47;;;;;;;19.18;50.02;102634.94;5019737;28;20109;-33
2023/05/17 00:04:11;;;;;;;11.60;6.35;;;;;;;19.16;49.26;102629.66;5025625;28;20096;-33
2023/05/17 00:06:38;;;;;;;10.52;5.93;;;;;;;19.16;49.79;102637.72;5026365;28;20127;-33
2023/05/17 00:09:04;;;;;;;10.60;6.30;;;;;;;19.16;49.84;102626.13;5023975;28;20045;-36
2023/05/17 00:11:31;;;;;;;10.65;5.95;;;;;;;19.15;49.93;102624.41;5021888;28;20136;-34
2023/05/17 00:13:58;;;;;;;10.55;6.38;;;;;;;19.14;50.12;102631.63;5022227;28;20441;-36
2023/05/17 00:16:24;;;;;;;10.13;5.70;;;;;;;19.13;49.54;102635.25;5025479;28;20053;-33
2023/05/17 00:18:53;;;;;;;8.90;5.50;;;;;;;19.13;49.69;102642.47;5021403;28;20144;-35
2023/05/17 00:21:20;;;;;;;12.07;5.95;;;;;;;19.14;49.74;102646.91;5020234;28;20156;-35
2023/05/17 00:23:47;;;;;;;11.23;6.25;;;;;;;19.11;50.12;102642.59;5018866;28;20057;-33
2023/05/17 00:26:13;;;;;;;9.88;5.60;;;;;;;19.12;49.78;102638.06;5026140;28;20050;-33
2023/05/17 00:28:40;;;;;;;10.05;5.72;;;;;;;19.11;49.51;102639.06;5038684;28;20156;-33
2023/05/17 00:31:06;;;;;;;9.48;5.90;;;;;;;19.11;49.73;102633.69;5024227;28;20140;-33
2023/05/17 00:33:33;;;;;;;10.15;5.20;;;;;;;19.11;49.92;102629.16;5024301;28;20140;-33
2023/05/17 00:36:00;;;;;;;8.52;4.97;;;;;;;19.10;49.78;102626.59;5027207;28;20104;-33
2023/05/17 00:38:26;;;;;;;10.05;5.18;;;;;;;19.08;49.59;102624.00;5024489;28;20384;-33
2023/05/17 00:40:53;;;;;;;9.57;5.75;;;;;;;19.08;49.96;102639.28;5027468;28;20058;-33
2023/05/17 00:43:20;;;;;;;10.10;5.80;;;;;;;19.08;49.71;102640.13;5025721;28;20072;-33
2023/05/17 00:45:48;;;;;;;10.65;4.97;;;;;;;19.08;49.64;102636.59;5024605;28;20132;-33
2023/05/17 00:48:15;;;;;;;8.48;5.47;;;;;;;19.07;49.45;102648.34;5022590;28;20425;-33
2023/05/17 00:50:42;;;;;;;9.93;5.70;;;;;;;19.06;50.19;102642.09;5022325;28;20052;-33
2023/05/17 00:53:14;;;;;;;8.15;5.20;;;;;;;19.07;50.02;102642.97;5023121;28;20041;-33
2023/05/17 00:55:44;;;;;;;8.48;5.07;;;;;;;19.06;49.89;102641.25;5022869;28;20140;-33
2023/05/17 00:58:12;;;;;;;8.48;4.95;;;;;;;19.07;49.83;102648.34;5024425;28;20058;-33
2023/05/17 01:00:39;;;;;;;10.48;5.35;;;;;;;19.06;49.44;102642.09;5023162;28;20049;-35
2023/05/17 01:03:06;;;;;;;9.23;5.55;;;;;;;19.06;50.08;102631.34;5018466;28;20738;-33
2023/05/17 01:05:33;;;;;;;9.32;5.13;;;;;;;19.06;50.35;102628.66;5020512;28;20053;-34
2023/05/17 01:08:00;;;;;;;8.80;5.10;;;;;;;19.05;49.88;102632.31;5024621;28;20144;-33
2023/05/17 01:11:01;;;;;;;8.80;5.05;;;;;;;19.03;49.89;102628.88;5025525;28;20615;-33
2023/05/17 01:13:50;;;;;;;7.80;4.50;;;;;;;19.04;49.83;102630.59;5022592;28;20392;-33
2023/05/17 01:16:34;;;;;;;8.85;5.07;;;;;;;19.04;49.71;102632.44;5018360;28;20045;-33
2023/05/17 01:19:19;;;;;;;;;;;;;;;19.04;49.73;102624.38;5020189;28;20057;-33
2023/05/17 01:22:05;;;;;;;9.68;5.13;;;;;;;19.07;49.85;102619.63;5020572;28;20062;-33
2023/05/17 01:25:02;;;;;;;8.52;4.90;;;;;;;19.04;50.13;102627.06;5021239;28;20395;-33
2023/05/17 01:27:30;;;;;;;7.50;4.70;;;;;;;19.04;49.84;102617.16;5020515;28;20068;-33
2023/05/17 01:29:58;;;;;;;9.52;5.15;;;;;;;19.03;50.15;102620.81;5024396;28;20429;-34
2023/05/17 01:32:25;;;;;;;9.48;4.78;;;;;;;19.02;50.17;102613.75;5023165;28;20052;-33
2023/05/17 01:34:52;;;;;;;10.77;5.07;;;;;;;19.03;49.76;102615.44;5022951;28;20053;-33
2023/05/17 01:37:18;;;;;;;8.27;4.65;;;;;;;19.03;50.02;102618.13;5022085;28;20046;-32
2023/05/17 01:39:45;;;;;;;8.50;5.07;;;;;;;19.02;49.77;102629.03;5025525;28;20049;-32
2023/05/17 01:42:15;;;;;;;7.95;4.32;;;;;;;19.03;49.83;102625.34;5025642;28;20096;-33
2023/05/17 01:44:47;;;;;;;8.63;4.43;;;;;;;19.02;50.08;102627.19;5023700;28;20136;-33
2023/05/17 01:47:40;;;;;;;7.18;4.25;;;;;;;19.01;50.12;102622.75;5023329;28;20326;-35
2023/05/17 01:50:09;;;;;;;7.55;4.38;;;;;;;19.02;50.17;102624.50;5025820;28;20322;-32
2023/05/17 01:52:52;;;;;;;6.85;4.18;;;;;;;19.00;50.38;102626.44;5025779;28;20050;-34
2023/05/17 01:55:29;;;;;;;8.98;4.82;;;;;;;19.01;49.80;102622.75;5023774;28;20129;-32
2023/05/17 01:57:57;;;;;;;7.20;4.47;;;;;;;19.02;49.93;102623.66;5022915;28;20130;-32
2023/05/17 02:00:28;;;;;;;8.50;4.40;;;;;;;19.00;50.54;102615.69;5022135;28;20053;-33
2023/05/17 02:02:54;;;;;;;5.25;3.42;;;;;;;19.01;50.22;102621.91;5019388;28;20049;-33
2023/05/17 02:05:21;;;;;;;5.70;3.75;;;;;;;19.01;50.17;102617.38;5021345;28;20166;-32
2023/05/17 02:07:48;;;;;;;7.03;4.53;;;;;;;19.00;50.07;102621.06;5022873;28;20045;-32
2023/05/17 02:10:14;;;;;;;6.72;4.20;;;;;;;18.99;49.86;102619.34;5024247;28;20049;-33
2023/05/17 02:12:42;;;;;;;6.47;3.88;;;;;;;19.00;49.91;102621.06;5018848;28;20041;-32
2023/05/17 02:15:10;;;;;;;8.02;4.07;;;;;;;18.98;50.34;102621.19;5021833;28;20389;-33
2023/05/17 02:17:39;;;;;;;8.30;3.72;;;;;;;18.98;50.47;102615.81;5019637;28;20053;-33
2023/05/17 02:20:10;;;;;;;7.50;4.18;;;;;;;18.97;50.40;102623.97;5023674;28;20045;-33
2023/05/17 02:22:37;;;;;;;6.93;4.03;;;;;;;18.97;50.40;102621.28;5021587;28;20150;-32
2023/05/17 02:25:05;;;;;;;6.35;3.60;;;;;;;18.96;50.18;102628.50;5024033;28;20107;-32
2023/05/17 02:27:32;;;;;;;5.68;3.65;;;;;;;18.96;50.42;102627.63;5028337;28;20056;-32
2023/05/17 02:30:00;;;;;;;5.13;3.20;;;;;;;18.94;50.43;102625.06;5024182;28;20111;-33
2023/05/17 02:32:27;;;;;;;7.70;3.78;;;;;;;18.94;50.01;102625.06;5025814;28;20052;-32
2023/05/17 02:34:55;;;;;;;7.38;3.92;;;;;;;18.93;50.17;102628.72;5025808;28;20050;-32
2023/05/17 02:37:21;;;;;;;8.52;3.58;;;;;;;18.93;50.14;102630.53;5030770;28;20076;-33
2023/05/17 02:39:48;;;;;;;6.90;3.63;;;;;;;18.92;50.17;102631.53;5024462;28;20091;-33
2023/05/17 02:42:15;;;;;;;8.38;4.43;;;;;;;18.91;50.11;102630.66;5024316;28;20139;-32
2023/05/17 02:44:41;;;;;;;5.00;3.00;;;;;;;18.91;50.19;102637.88;5027595;28;20122;-33
2023/05/17 02:47:08;;;;;;;5.38;3.38;;;;;;;18.91;50.90;102635.19;5023026;28;20057;-33
2023/05/17 02:49:35;;;;;;;6.35;3.70;;;;;;;18.90;50.56;102631.66;5029612;28;20061;-32
2023/05/17 02:52:01;;;;;;;6.05;3.63;;;;;;;18.90;50.51;102639.72;5028134;28;20045;-33
2023/05/17 02:54:28;;;;;;;5.38;3.38;;;;;;;18.89;50.12;102634.44;5026678;28;20056;-34
2023/05/17 02:56:55;;;;;;;5.60;3.47;;;;;;;18.89;50.32;102639.81;5026208;28;20156;-33
2023/05/17 02:59:21;;;;;;;6.70;3.08;;;;;;;18.89;50.10;102639.81;5026600;28;20065;-33
2023/05/17 03:01:49;;;;;;;4.53;3.10;;;;;;;18.87;50.20;102639.94;5028470;28;20111;-32
2023/05/17 03:04:16;;;;;;;4.38;2.97;;;;;;;18.87;50.64;102639.09;5026424;28;20045;-33
2023/05/17 03:06:42;;;;;;;7.20;3.28;;;;;;;18.87;50.32;102645.31;5026694;28;20057;-32
2023/05/17 03:09:09;;;;;;;5.15;3.08;;;;;;;18.87;50.44;102649.84;5026664;28;20045;-33
2023/05/17 03:11:35;;;;;;;4.93;2.95;;;;;;;18.87;50.38;102649.84;5026658;28;20053;-32
2023/05/17 03:14:02;;;;;;;5.00;3.08;;;;;;;18.85;50.55;102643.69;5027241;28;20069;-32
2023/05/17 03:16:29;;;;;;;6.38;2.97;;;;;;;18.84;50.64;102653.59;5020744;28;20119;-32
2023/05/17 03:18:55;;;;;;;5.05;2.80;;;;;;;18.85;50.82;102652.63;5026649;28;20079;-32
2023/05/17 03:21:22;;;;;;;5.65;3.40;;;;;;;18.85;50.99;102654.44;5025172;28;20064;-34
2023/05/17 03:23:49;;;;;;;5.28;3.00;;;;;;;18.85;50.29;102666.06;5023745;28;20437;-33
2023/05/17 03:26:17;;;;;;;5.40;3.17;;;;;;;18.85;50.76;102659.81;5027782;28;20049;-33
2023/05/17 03:28:45;;;;;;;8.00;3.72;;;;;;;18.85;50.12;102670.56;5027700;28;20073;-32
2023/05/17 03:31:11;;;;;;;5.35;3.00;;;;;;;18.85;50.21;102667.88;5024124;28;20148;-34
2023/05/17 03:33:38;;;;;;;6.60;3.30;;;;;;;18.87;50.65;102679.38;5024911;28;20045;-33
2023/05/17 03:36:06;;;;;;;4.95;2.95;;;;;;;18.85;50.51;102687.53;5024835;28;20046;-33
2023/05/17 03:38:32;;;;;;;5.43;3.03;;;;;;;18.86;50.34;102683.91;5019444;28;20111;-32
2023/05/17 03:40:59;;;;;;;5.97;2.83;;;;;;;18.86;50.44;102683.91;5028002;28;20392;-32
2023/05/17 03:43:26;;;;;;;8.27;3.63;;;;;;;18.86;50.65;102691.13;5020956;28;20091;-33
2023/05/17 03:45:52;;;;;;;4.95;2.83;;;;;;;18.85;49.95;102689.38;5020730;28;20380;-32
2023/05/17 03:48:19;;;;;;;4.75;2.95;;;;;;;18.84;50.03;102690.34;5021962;28;20045;-32
2023/05/17 03:50:45;;;;;;;6.55;3.20;;;;;;;18.83;50.91;102691.34;5022386;28;20051;-32
2023/05/17 03:53:12;;;;;;;3.67;2.50;;;;;;;18.83;50.48;102694.03;5024121;28;20071;-33
2023/05/17 03:55:39;;;;;;;4.53;2.88;;;;;;;18.83;50.27;102697.56;5024766;28;20069;-33
2023/05/17 03:58:06;;;;;;;5.55;2.97;;;;;;;18.83;50.44;102702.94;5018709;28;20099;-33
2023/05/17 04:00:32;;;;;;;4.72;2.60;;;;;;;18.82;50.10;102697.69;5024139;28;20089;-33
2023/05/17 04:02:59;;;;;;;4.93;3.13;;;;;;;18.81;50.22;102702.19;5022852;28;20042;-34
2023/05/17 04:05:26;;;;;;;4.90;2.70;;;;;;;18.81;50.82;102704.00;5023344;28;20487;-32
2023/05/17 04:07:53;;;;;;;3.88;2.75;;;;;;;18.81;50.42;102712.91;5023761;28;20175;-33
2023/05/17 04:10:19;;;;;;;5.75;2.65;;;;;;;18.80;51.02;102711.22;5024406;28;20042;-33
2023/05/17 04:12:46;;;;;;;4.80;2.60;;;;;;;18.79;50.91;102704.13;5023499;28;20095;-33
2023/05/17 04:15:13;;;;;;;4.50;2.67;;;;;;;18.79;50.50;102711.34;5021344;28;20133;-32
2023/05/17 04:17:39;;;;;;;5.43;2.60;;;;;;;18.79;50.77;102716.72;5020504;28;20115;-33
2023/05/17 04:20:06;;;;;;;7.03;3.22;;;;;;;18.78;50.95;102718.53;5022669;28;20042;-33
2023/05/17 04:22:33;;;;;;;6.47;2.67;;;;;;;18.79;50.41;102730.16;5022760;28;20072;-33
2023/05/17 04:25:00;;;;;;;5.80;2.65;;;;;;;18.79;50.71;102730.16;5024323;28;20434;-33
2023/05/17 04:27:26;;;;;;;6.72;3.00;;;;;;;18.79;50.65;102731.00;5022145;28;20095;-32
2023/05/17 04:29:53;;;;;;;5.40;2.60;;;;;;;18.79;50.73;102733.69;5026326;28;20451;-33
2023/05/17 04:32:20;;;;;;;4.68;3.13;;;;;;;18.79;50.48;102739.06;5024843;28;20148;-33
2023/05/17 04:34:46;;;;;;;6.63;2.53;;;;;;;18.80;50.51;102746.13;5024557;28;20429;-33
2023/05/17 04:37:14;;;;;;;6.68;3.03;;;;;;;18.80;50.52;102747.97;5025569;28;20082;-32
2023/05/17 04:39:41;;;;;;;5.28;2.65;;;;;;;18.81;50.27;102747.00;5027575;28;20049;-33
2023/05/17 04:42:08;;;;;;;5.22;2.63;;;;;;;18.81;50.47;102750.53;5028590;28;20073;-33
2023/05/17 04:44:35;;;;;;;5.82;2.72;;;;;;;18.83;50.80;102761.19;5030337;28;20049;-33
2023/05/17 04:47:02;;;;;;;6.63;3.13;;;;;;;18.84;50.61;102762.91;5024455;28;20075;-32
2023/05/17 04:49:29;;;;;;;6.43;2.85;;;;;;;18.86;50.62;102769.03;5026165;28;20073;-32
2023/05/17 04:51:55;;;;;;;5.82;3.08;;;;;;;18.88;50.31;102772.44;5024727;28;20053;-33
2023/05/17 04:54:22;;;;;;;4.22;2.97;;;;;;;18.89;50.44;102764.25;5027075;28;20084;-32
2023/05/17 04:56:49;;;;;;;5.60;3.00;;;;;;;18.91;50.47;102773.09;5022709;28;20072;-33
2023/05/17 04:59:15;;;;;;;6.93;3.10;;;;;;;18.93;50.81;102771.13;5022565;28;20056;-33
2023/05/17 05:01:42;;;;;;;6.85;2.80;;;;;;;18.95;50.48;102769.19;5020256;28;20119;-32
2023/05/17 05:04:09;;;;;;;7.15;3.67;;;;;;;18.97;50.08;102769.06;5020484;28;20458;-33
2023/05/17 05:06:36;;;;;;;7.75;2.90;;;;;;;18.98;50.53;102771.66;5022289;28;20393;-33
2023/05/17 05:09:03;;;;;;;6.22;3.47;;;;;;;19.01;50.16;102777.78;5026102;28;20103;-33
2023/05/17 05:11:30;;;;;;;7.78;3.45;;;;;;;19.02;49.88;102788.44;5027471;28;20132;-32
2023/05/17 05:13:57;;;;;;;7.13;3.53;;;;;;;19.02;50.35;102783.06;5024463;28;20316;-34
2023/05/17 05:16:24;;;;;;;6.70;4.15;;;;;;;19.03;49.76;102787.44;5022412;28;20045;-34
2023/05/17 05:18:50;;;;;;;6.88;3.30;;;;;;;19.05;49.70;102800.75;5021448;28;20050;-34
2023/05/17 05:21:17;;;;;;;7.70;4.03;;;;;;;19.06;49.96;102799.81;5025528;28;20057;-34
2023/05/17 05:23:44;;;;;;;8.27;3.47;;;;;;;19.07;49.85;102801.53;5022180;28;20193;-33
2023/05/17 05:26:10;;;;;;;7.53;3.78;;;;;;;19.08;49.78;102806.78;5023534;28;20049;-34
2023/05/17 05:28:39;;;;;;;6.78;3.88;;;;;;;19.11;49.87;102809.25;5021199;28;20049;-34
2023/05/17 05:31:06;;;;;;;7.45;3.95;;;;;;;19.13;50.18;102811.81;5023303;28;20140;-34
2023/05/17 05:33:33;;;;;;;8.07;3.95;;;;;;;19.14;49.81;102817.09;5021344;28;20069;-34
2023/05/17 05:35:59;;;;;;;8.20;3.90;;;;;;;19.16;49.81;102812.44;5027385;28;20069;-33
2023/05/17 05:38:26;;;;;;;8.13;3.72;;;;;;;19.19;49.62;102814.91;5021845;28;20057;-34
2023/05/17 05:40:53;;;;;;;7.30;4.00;;;;;;;19.20;49.45;102815.78;5019626;28;20136;-33
2023/05/17 05:43:19;;;;;;;7.68;4.22;;;;;;;19.22;50.05;102819.22;5023733;28;20046;-34
2023/05/17 05:45:46;;;;;;;6.25;4.00;;;;;;;19.24;49.49;102823.50;5024686;28;20124;-33
2023/05/17 05:48:13;;;;;;;9.00;4.57;;;;;;;19.26;50.02;102823.41;5022729;28;20053;-33
2023/05/17 05:50:42;;;;;;;9.10;4.85;;;;;;;19.28;49.80;102837.56;5023090;28;20429;-33
2023/05/17 05:53:12;;;;;;;8.95;4.45;;;;;;;19.30;49.75;102841.03;5024177;28;20448;-33
2023/05/17 05:55:45;;;;;;;9.02;5.22;;;;;;;19.30;49.64;102842.84;5024131;28;20061;-33
2023/05/17 05:58:12;;;;;;;10.20;4.80;;;;;;;19.31;49.57;102847.25;5023588;28;20060;-33
2023/05/17 06:00:38;;;;;;;13.13;5.18;;;;;;;19.32;49.14;102849.81;5029471;28;20136;-33
2023/05/17 06:03:05;;;;;;;10.63;5.68;;;;;;;19.33;49.67;102847.97;5026770;28;20057;-33
2023/05/17 06:05:32;;;;;;;12.45;5.45;;;;;;;19.32;49.67;102852.50;5027949;28;20047;-33
2023/05/17 06:07:59;;;;;;;8.40;5.05;;;;;;;19.34;49.70;102855.09;5021952;28;20330;-32
2023/05/17 06:10:25;;;;;;;11.10;4.80;;;;;;;19.35;49.67;102851.44;5027877;28;20054;-33
2023/05/17 06:12:53;;;;;;;8.65;4.82;;;;;;;19.37;49.45;102852.16;5027338;28;20394;-33
2023/05/17 06:15:19;;;;;;;9.75;5.35;;;;;;;19.36;49.20;102855.81;5027253;28;20112;-36
2023/05/17 06:17:46;;;;;;;8.43;5.03;;;;;;;19.38;49.11;102856.59;5026990;28;20136;-33
2023/05/17 06:20:13;;;;;;;13.70;5.97;;;;;;;19.39;49.53;102855.59;5024744;28;20050;-34
2023/05/17 06:22:41;;;;;;;11.30;5.75;;;;;;;19.39;49.16;102855.59;5024721;28;20095;-33
2023/05/17 06:25:09;;;;;;;11.93;6.32;;;;;;;19.41;49.09;102867.09;5027056;28;20087;-33
2023/05/17 06:27:36;;;;;;;12.60;6.57;;;;;;;19.42;49.18;102866.16;5024525;28;20045;-33
2023/05/17 06:30:03;;;;;;;13.77;6.70;;;;;;;19.43;49.12;102866.03;5025731;28;20418;-33
2023/05/17 06:32:33;;;;;;;12.40;5.97;;;;;;;19.45;49.37;102865.91;5030972;28;20055;-33
2023/05/17 06:35:00;;;;;;;9.63;5.47;;;;;;;19.47;48.64;102869.34;5026575;28;20079;-33
2023/05/17 06:37:27;;;;;;;11.20;6.18;;;;;;;19.49;49.30;102875.44;5027547;28;20326;-34
2023/05/17 06:40:01;;;;;;;11.20;5.90;;;;;;;19.49;49.06;102867.38;5023207;28;20053;-33
2023/05/17 06:42:41;;;;;;;9.93;5.47;;;;;;;19.50;48.33;102863.75;5025419;28;20389;-33
2023/05/17 06:45:08;;;;;;;11.90;6.50;;;;;;;19.51;48.58;102870.84;5023764;28;20073;-33
2023/05/17 06:47:35;;;;;;;10.82;6.50;;;;;;;19.52;48.44;102886.00;5018473;28;20082;-33
2023/05/17 06:50:01;;;;;;;10.60;5.50;;;;;;;19.52;48.45;102886.00;5027921;28;20049;-33
2023/05/17 06:52:28;;;;;;;11.48;5.55;;;;;;;19.51;48.27;102886.13;5029988;28;20061;-33
2023/05/17 06:54:55;;;;;;;10.07;5.40;;;;;;;19.50;48.80;102879.88;5026236;28;20148;-33
2023/05/17 06:57:23;;;;;;;11.02;5.80;;;;;;;19.48;49.06;102885.34;5020426;28;20405;-33
2023/05/17 06:59:51;;;;;;;13.35;5.78;;;;;;;19.47;48.86;102889.03;5023664;28;20053;-33
2023/05/17 07:02:18;;;;;;;11.38;5.65;;;;;;;19.47;48.74;102886.34;5025187;28;20073;-33
2023/05/17 07:04:45;;;;;;;14.30;5.90;;;;;;;19.46;48.35;102898.06;5010908;28;20056;-33
2023/05/17 07:07:11;;;;;;;10.68;5.93;;;;;;;19.47;48.93;102897.09;5025004;28;20384;-33
2023/05/17 07:09:38;;;;;;;9.20;5.13;;;;;;;19.47;48.63;102899.78;5026653;28;20429;-34
2023/05/17 07:12:05;;;;;;;12.73;6.88;;;;;;;19.47;48.83;102909.69;5026182;28;20192;-33
2023/05/17 07:14:32;;;;;;;12.25;6.28;;;;;;;19.47;48.59;102904.31;5030141;28;20042;-33
2023/05/17 07:16:58;;;;;;;9.05;5.85;;;;;;;19.46;48.38;102900.75;5024773;28;20503;-33
2023/05/17 07:19:25;;;;;;;10.75;5.70;;;;;;;19.46;48.97;102903.44;5027448;28;20053;-33
2023/05/17 07:21:52;;;;;;;12.35;5.85;;;;;;;19.48;49.05;102908.72;5024416;28;20384;-33
2023/05/17 07:24:19;;;;;;;11.55;6.10;;;;;;;19.48;48.63;102901.50;5027099;28;20095;-33
2023/05/17 07:26:45;;;;;;;10.23;5.45;;;;;;;19.49;48.50;102911.28;5028459;28;20081;-35
2023/05/17 07:29:12;;;;;;;11.38;5.43;;;;;;;19.49;48.50;102907.72;5026749;28;20528;-33
2023/05/17 07:31:39;;;;;;;13.48;5.90;;;;;;;19.50;48.70;102914.84;5023873;28;20046;-33
2023/05/17 07:34:05;;;;;;;11.50;5.70;;;;;;;19.50;49.04;102920.22;5024955;28;20508;-33
2023/05/17 07:36:32;;;;;;;10.05;5.13;;;;;;;19.50;48.46;102914.84;5020463;28;20318;-33
2023/05/17 07:38:59;;;;;;;12.65;5.70;;;;;;;19.51;48.91;102923.78;5021795;28;20053;-34
2023/05/17 07:41:26;;;;;;;10.40;5.45;;;;;;;19.52;48.90;102928.16;5027626;28;20053;-33
2023/05/17 07:43:52;;;;;;;10.43;5.05;;;;;;;19.51;48.98;102930.00;5024413;28;20119;-34
2023/05/17 07:46:19;;;;;;;9.75;5.45;;;;;;;19.52;49.00;102934.41;5021812;28;20054;-33
2023/05/17 07:48:45;;;;;;;10.38;5.32;;;;;;;19.52;48.38;102931.72;5023226;28;20196;-33
2023/05/17 07:51:12;;;;;;;10.40;5.15;;;;;;;19.53;48.75;102928.03;5025182;28;20437;-33
2023/05/17 07:53:39;;;;;;;9.35;5.30;;;;;;;19.54;48.49;102931.59;5025693;28;20080;-34
2023/05/17 07:56:06;;;;;;;13.77;6.30;;;;;;;19.54;48.38;102936.97;5025439;28;20053;-33
2023/05/17 07:58:32;;;;;;;12.02;5.72;;;;;;;19.55;48.40;102938.72;5026274;28;20165;-34
2023/05/17 08:00:59;;;;;;;11.73;5.13;;;;;;;19.55;48.38;102941.41;5023165;28;20103;-33
2023/05/17 08:03:27;;;;;;;11.10;5.32;;;;;;;19.55;48.73;102928.81;5020496;28;20171;-34
2023/05/17 08:05:55;;;;;;;10.00;4.93;;;;;;;19.55;48.43;102944.94;5024004;28;20057;-33
2023/05/17 08:08:21;;;;;;;11.27;5.40;;;;;;;19.56;48.60;102946.66;5025031;28;20089;-33
2023/05/17 08:10:48;;;;;;;11.55;4.85;;;;;;;19.56;48.56;102956.56;5025640;28;20110;-34
2023/05/17 08:13:15;;;;;;;8.88;5.22;;;;;;;19.56;48.55;102946.66;5019533;28;20441;-33
2023/05/17 08:15:42;;;;;;;12.20;5.50;;;;;;;19.56;48.08;102951.19;5021160;28;20054;-33
2023/05/17 08:18:08;;;;;;;11.88;5.30;;;;;;;19.56;48.56;102951.19;5026082;28;20083;-33
2023/05/17 08:20:35;;;;;;;11.82;4.93;;;;;;;19.55;48.49;102958.41;5022223;28;20053;-33
2023/05/17 08:23:02;;;;;;;10.77;4.82;;;;;;;19.56;48.40;102949.34;5020666;28;20076;-33
2023/05/17 08:25:28;;;;;;;15.32;5.03;;;;;;;19.56;48.02;102948.50;5022797;28;20402;-33
2023/05/17 08:27:55;;;;;;;13.20;5.57;;;;;;;19.57;48.51;102944.81;5018910;28;20491;-31
2023/05/17 08:30:25;;;;;;;10.40;4.95;;;;;;;19.56;48.57;102951.19;5024039;28;20453;-31
2023/05/17 08:32:55;;;;;;;11.75;5.45;;;;;;;19.57;48.29;102950.19;5023908;28;20050;-31
2023/05/17 08:35:22;;;;;;;11.45;4.50;;;;;;;19.57;48.31;102950.19;5024623;28;20536;-34
2023/05/17 08:37:53;;;;;;;12.45;5.00;;;;;;;19.57;48.37;102956.44;5024922;28;20061;-31
2023/05/17 08:40:20;;;;;;;14.60;5.25;;;;;;;19.59;47.87;102946.44;5027763;28;20428;-32
2023/05/17 08:42:49;;;;;;;14.68;5.20;;;;;;;19.60;47.83;102947.28;5026502;28;20049;-32
2023/05/17 08:45:17;;;;;;;10.07;4.50;;;;;;;19.61;48.20;102960.66;5027356;28;20343;-32
2023/05/17 08:47:45;;;;;;;12.45;4.43;;;;;;;19.60;47.93;102956.22;5022902;28;20545;-32
2023/05/17 08:50:13;;;;;;;10.18;4.68;;;;;;;19.62;47.97;102951.63;5021814;28;20068;-32
2023/05/17 08:52:44;;;;;;;12.85;4.20;;;;;;;19.62;48.06;102951.63;5022524;28;20508;-34
2023/05/17 08:55:10;;;;;;;10.02;5.32;;;;;;;19.64;47.85;102952.38;5025372;28;20065;-34
2023/05/17 08:57:39;;;;;;;13.02;4.20;;;;;;;19.66;48.17;102953.13;5018930;28;20049;-34
2023/05/17 09:00:13;;;;;;;10.98;4.45;;;;;;;19.68;48.03;102955.69;5025316;28;20073;-34
2023/05/17 09:02:42;;;;;;;9.80;4.40;;;;;;;19.70;48.18;102960.00;5022818;28;20046;-34
2023/05/17 09:05:09;;;;;;;9.95;4.15;;;;;;;19.71;47.53;102958.16;5023190;28;20341;-34
2023/05/17 09:07:36;;;;;;;7.55;3.78;;;;;;;19.73;47.58;102964.28;5023701;28;20096;-32
2023/05/17 09:10:04;;;;;;;8.40;3.67;;;;;;;19.75;47.70;102962.34;5022254;28;20050;-32
2023/05/17 09:12:35;;;;;;;8.70;3.70;;;;;;;19.76;47.62;102969.44;5026898;28;20133;-32
2023/05/17 09:15:16;;;;;;;7.75;3.72;;;;;;;19.77;47.18;102965.78;5023963;28;20060;-32
2023/05/17 09:17:50;;;;;;;8.70;3.45;;;;;;;19.80;47.36;102959.31;5023888;28;20365;-32
2023/05/17 09:20:33;;;;;;;10.25;3.92;;;;;;;19.82;47.41;102963.63;5024653;28;20088;-33
2023/05/17 09:23:01;;;;;;;7.20;3.37;;;;;;;19.85;47.65;102960.69;5021116;28;20090;-33
2023/05/17 09:25:28;;;;;;;7.97;3.92;;;;;;;19.88;47.48;102971.22;5030573;28;20523;-33
2023/05/17 09:27:59;;;;;;;9.57;3.28;;;;;;;19.92;47.50;102972.72;5024155;28;20451;-32
2023/05/17 09:30:28;;;;;;;6.22;3.05;;;;;;;19.96;47.08;102962.56;5024919;28;20056;-32
2023/05/17 09:32:56;;;;;;;8.20;3.58;;;;;;;20.00;47.04;102974.84;5016913;28;20484;-32
2023/05/17 09:35:28;;;;;;;7.05;3.40;;;;;;;20.05;46.54;102969.09;5024869;28;20196;-33
2023/05/17 09:38:05;;;;;;;6.97;3.03;;;;;;;20.08;46.59;102975.13;5022045;28;20107;-33
2023/05/17 09:40:32;;;;;;;9.55;3.50;;;;;;;20.15;46.98;102973.69;5022399;28;20068;-33
2023/05/17 09:42:59;;;;;;;8.02;2.90;;;;;;;20.18;46.82;102969.88;5021356;28;20435;-32
2023/05/17 09:45:26;;;;;;;8.65;3.40;;;;;;;20.25;46.06;102975.69;5023691;28;20045;-33
2023/05/17 09:47:53;;;;;;;4.38;2.60;;;;;;;20.29;46.54;102969.06;5020966;28;20702;-33
2023/05/17 09:50:21;;;;;;;6.68;3.55;;;;;;;20.33;46.46;102965.19;5020534;28;20077;-33
2023/05/17 09:52:51;;;;;;;7.90;2.92;;;;;;;20.38;46.25;102973.75;5018276;28;20072;-33
2023/05/17 09:55:26;;;;;;;6.07;2.88;;;;;;;20.42;46.26;102970.72;5022746;28;20091;-33
2023/05/17 09:58:01;;;;;;;5.28;2.22;;;;;;;20.47;45.61;102978.47;5020285;28;20136;-33
2023/05/17 10:00:28;;;;;;;9.60;3.17;;;;;;;20.51;45.96;102971.88;5023141;28;20107;-33
2023/05/17 10:02:55;;;;;;;5.97;2.58;;;;;;;20.55;45.50;102973.38;5024246;28;20049;-33
2023/05/17 10:05:22;;;;;;;7.70;2.33;;;;;;;20.59;45.81;102971.31;5022696;28;20052;-33
2023/05/17 10:07:50;;;;;;;5.72;2.55;;;;;;;20.63;45.96;102970.09;5023233;28;20112;-34
2023/05/17 10:10:18;;;;;;;7.63;2.72;;;;;;;20.67;45.43;102968.88;5027134;28;20050;-35
2023/05/17 10:12:46;;;;;;;6.07;2.42;;;;;;;20.69;45.33;102959.66;5027764;28;20100;-33
2023/05/17 10:15:16;;;;;;;7.68;2.55;;;;;;;20.74;45.65;102966.53;5023314;28;20116;-34
2023/05/17 10:17:44;;;;;;;6.07;2.35;;;;;;;20.77;45.07;102958.22;5024538;28;20057;-33
2023/05/17 10:20:13;;;;;;;6.13;2.25;;;;;;;20.79;44.94;102965.22;5023058;28;20445;-34
2023/05/17 10:22:41;;;;;;;6.68;2.42;;;;;;;20.82;45.31;102964.94;5021814;28;20065;-34
2023/05/17 10:25:09;;;;;;;5.63;2.15;;;;;;;20.84;45.01;102963.00;5022514;28;20048;-33
2023/05/17 10:27:36;;;;;;;8.45;2.55;;;;;;;20.87;44.87;102960.09;5023239;28;20049;-34
2023/05/17 10:30:03;;;;;;;3.75;1.88;;;;;;;20.92;45.16;102970.50;5022780;28;20108;-34
2023/05/17 10:32:30;;;;;;;6.10;2.42;;;;;;;20.93;45.34;102974.91;5019553;28;20050;-33
2023/05/17 10:34:58;;;;;;;5.55;2.35;;;;;;;20.96;44.86;102963.88;5021942;28;20045;-34
2023/05/17 10:37:38;;;;;;;6.45;2.33;;;;;;;20.99;44.75;102976.28;5025152;28;20049;-34
2023/05/17 10:40:12;;;;;;;5.85;2.33;;;;;;;21.01;44.89;102964.38;5023274;28;20061;-34
2023/05/17 10:42:41;;;;;;;;;;;;;;;21.02;44.06;102966.06;5023613;28;20056;-34
2023/05/17 10:45:10;;;;;;;5.70;1.83;;;;;;;21.07;44.45;102961.19;5024629;28;20336;-34
2023/05/17 10:47:41;;;;;;;5.13;1.80;;;;;;;21.09;44.19;102958.38;5024476;28;20389;-34
2023/05/17 10:50:11;;;;;;;5.10;1.90;;;;;;;21.11;44.63;102964.50;5028277;28;20046;-34
2023/05/17 10:52:44;;;;;;;2.65;1.48;;;;;;;21.13;44.55;102973.31;5028658;28;20045;-34
2023/05/17 10:55:10;;;;;;;7.15;2.15;;;;;;;21.14;44.21;102970.50;5024316;28;20064;-33
2023/05/17 10:57:37;;;;;;;4.30;1.65;;;;;;;21.16;43.88;102973.09;5026781;28;20053;-34
2023/05/17 11:00:20;;;;;;;6.25;1.95;;;;;;;21.18;43.80;102976.50;5028629;28;20080;-33
2023/05/17 11:02:49;;;;;;;7.00;2.05;;;;;;;21.20;43.73;102971.84;5022342;28;20484;-34
2023/05/17 11:05:23;;;;;;;6.35;2.15;;;;;;;21.23;43.86;102974.31;5025636;28;20081;-34
2023/05/17 11:07:50;;;;;;;3.33;1.27;;;;;;;21.26;43.97;102975.88;5023025;28;20050;-34
2023/05/17 11:10:17;;;;;;;4.55;1.88;;;;;;;21.28;43.52;102973.94;5024238;28;20476;-34
2023/05/17 11:12:46;;;;;;;4.07;1.60;;;;;;;21.30;43.50;102974.66;5021581;28;20143;-34
2023/05/17 11:15:15;;;;;;;5.10;1.92;;;;;;;21.32;43.44;102973.59;5025585;28;20049;-34
2023/05/17 11:17:41;;;;;;;4.35;1.27;;;;;;;21.33;43.63;102969.91;5026854;28;20060;-34
2023/05/17 11:20:14;;;;;;;4.72;2.33;;;;;;;21.34;43.17;102970.78;5026167;28;20049;-34
2023/05/17 11:23:04;;;;;;;3.75;1.83;;;;;;;21.35;42.64;102984.16;5022418;28;20112;-34
2023/05/17 11:25:34;;;;;;;6.65;2.10;;;;;;;21.39;43.47;102987.47;5024699;28;20124;-34
2023/05/17 11:28:08;;;;;;;8.63;2.15;;;;;;;21.40;43.01;102975.69;5027096;28;20057;-34
2023/05/17 11:30:39;;;;;;;;;;;;;;;21.41;42.94;102982.78;5032218;28;20075;-35